Time;durP1;ratioP1;P1;durP2;ratioP2;P2;SDS_P1;SDS_P2;PMS_P1;PMS_P2;Temp;Humidity;BMP_temperature;BMP_pressure;BME280_temperature;BME280_humidity;BME280_pressure;Samples;Min_cycle;Max_cycle;Signal;HPM_P1;HPM_P2
2023/09/23 00:02:13;;;;;;;17.80;6.38;;;;;;;21.25;76.09;100322.09;5049258;28;20507;-71
2023/09/23 00:04:38;;;;;;;15.95;7.30;;;;;;;21.47;76.35;100382.28;5031550;28;20029;-69
2023/09/23 00:07:05;;;;;;;12.07;6.57;;;;;;;21.44;76.87;100392.81;5049964;28;20029;-70
2023/09/23 00:09:31;;;;;;;12.75;6.43;;;;;;;21.42;76.90;100389.34;5053118;28;20021;-70
2023/09/23 00:11:57;;;;;;;16.98;7.90;;;;;;;21.41;77.30;100388.47;5052748;28;20029;-69
2023/09/23 00:14:24;;;;;;;15.25;6.55;;;;;;;21.09;77.54;100349.38;5052600;28;20036;-71
2023/09/23 00:16:49;;;;;;;12.93;6.82;;;;;;;21.31;77.42;100376.31;5052882;28;20108;-70
2023/09/23 00:19:15;;;;;;;17.73;7.43;;;;;;;21.24;77.63;100378.09;5033777;28;20037;-70
2023/09/23 00:21:41;;;;;;;13.82;6.88;;;;;;;21.25;77.81;100381.63;5052065;28;20083;-72
2023/09/23 00:24:08;;;;;;;17.92;6.85;;;;;;;21.21;77.80;100377.25;5052290;28;20033;-71
2023/09/23 00:26:33;;;;;;;12.68;6.88;;;;;;;20.83;77.65;100306.69;5052736;28;20108;-70
2023/09/23 00:28:59;;;;;;;16.85;6.65;;;;;;;21.22;77.66;100386.88;5052891;28;20116;-70
2023/09/23 00:31:25;;;;;;;15.00;7.22;;;;;;;21.07;78.53;100386.16;5052575;28;20032;-71
2023/09/23 00:33:52;;;;;;;22.27;7.47;;;;;;;21.09;78.71;100389.59;5052417;28;20477;-71
2023/09/23 00:36:18;;;;;;;16.88;6.65;;;;;;;21.10;78.73;100393.13;5052716;28;20033;-74
2023/09/23 00:38:44;;;;;;;12.90;6.93;;;;;;;21.10;79.38;100396.59;5052410;28;20025;-70
2023/09/23 00:41:09;;;;;;;13.57;7.07;;;;;;;21.14;78.58;100392.19;5052104;28;20507;-69
2023/09/23 00:43:35;;;;;;;11.60;7.47;;;;;;;21.19;79.55;100394.81;5033190;28;20110;-69
2023/09/23 00:46:06;;;;;;;18.10;7.32;;;;;;;21.00;78.69;100347.69;5052187;28;20520;-73
2023/09/23 00:48:38;;;;;;;12.10;6.47;;;;;;;21.40;78.07;100385.88;5052111;28;20037;-72
2023/09/23 00:51:04;;;;;;;15.07;6.50;;;;;;;21.52;75.79;100383.13;5051717;28;20111;-71
2023/09/23 00:53:30;;;;;;;11.95;7.03;;;;;;;21.25;75.35;100310.75;5051970;28;20104;-72
2023/09/23 00:56:00;;;;;;;9.88;6.43;;;;;;;21.46;77.13;100384.03;5029507;28;20053;-72
2023/09/23 00:58:26;;;;;;;12.20;6.43;;;;;;;21.50;77.06;100383.13;5029590;28;20033;-71
2023/09/23 01:00:54;;;;;;;12.80;6.65;;;;;;;21.29;76.83;100344.81;5029513;28;20104;-75
2023/09/23 01:03:20;;;;;;;14.60;7.30;;;;;;;21.62;76.44;100376.94;5029458;28;20041;-71
2023/09/23 01:05:47;;;;;;;19.60;7.05;;;;;;;21.68;76.83;100401.38;5029264;28;20071;-75
2023/09/23 01:08:29;;;;;;;12.75;6.75;;;;;;;21.61;77.03;100393.56;5029277;28;20045;-70
2023/09/23 01:10:55;;;;;;;11.57;6.63;;;;;;;21.72;77.42;100398.72;5012958;28;20076;-69
2023/09/23 01:13:22;;;;;;;11.82;6.90;;;;;;;21.89;76.60;100389.78;5029419;28;20029;-70
2023/09/23 01:16:09;;;;;;;12.32;6.25;;;;;;;22.01;76.45;100387.00;5029265;28;20033;-77
2023/09/23 01:18:35;;;;;;;16.00;6.43;;;;;;;22.10;75.44;100389.53;4989327;28;20121;-71
2023/09/23 01:21:02;;;;;;;13.45;6.53;;;;;;;22.23;75.95;100385.00;4981333;28;20043;-70
2023/09/23 01:23:28;;;;;;;14.30;6.68;;;;;;;22.19;76.41;100388.53;4970451;28;20039;-70
2023/09/23 01:25:53;;;;;;;10.43;6.68;;;;;;;21.84;77.89;100399.47;4970472;28;20470;-72
2023/09/23 01:28:18;;;;;;;11.45;6.70;;;;;;;21.68;78.03;100404.00;4970230;28;20046;-72
2023/09/23 01:30:45;;;;;;;13.57;6.95;;;;;;;21.29;78.59;100409.59;4970037;28;20211;-71
2023/09/23 01:33:13;;;;;;;12.27;6.68;;;;;;;21.33;79.03;100404.31;4978129;28;20510;-70
2023/09/23 01:35:40;;;;;;;19.63;7.32;;;;;;;21.55;78.37;100404.09;4989860;28;20113;-70
2023/09/23 01:38:06;;;;;;;14.40;6.43;;;;;;;21.68;77.01;100402.25;4989500;28;20042;-71
2023/09/23 01:40:36;;;;;;;11.30;6.93;;;;;;;21.60;77.71;100385.72;4989843;28;20035;-70
2023/09/23 01:43:02;;;;;;;15.07;6.45;;;;;;;21.48;78.45;100381.41;4989442;28;20038;-70
2023/09/23 01:45:28;;;;;;;11.13;6.80;;;;;;;21.62;78.30;100397.94;4989489;28;20046;-70
2023/09/23 01:47:56;;;;;;;16.17;6.97;;;;;;;21.04;78.29;100331.03;4989177;28;20046;-70
2023/09/23 01:50:25;;;;;;;15.43;8.55;;;;;;;21.30;79.19;100412.19;5024261;28;20409;-70
2023/09/23 01:52:51;;;;;;;13.90;7.95;;;;;;;21.21;79.84;100406.13;5031303;28;20025;-75
2023/09/23 01:55:17;;;;;;;13.43;7.90;;;;;;;20.74;80.31;100342.66;5030952;28;20090;-74
2023/09/23 01:57:43;;;;;;;10.65;7.45;;;;;;;21.17;80.80;100411.44;5030705;28;20033;-71
2023/09/23 02:00:13;;;;;;;10.95;7.43;;;;;;;21.15;80.38;100412.31;5031272;28;20034;-70
2023/09/23 02:02:38;;;;;;;13.02;7.13;;;;;;;21.07;80.66;100415.03;5038488;28;20480;-71
2023/09/23 02:05:05;;;;;;;12.35;6.78;;;;;;;20.62;80.76;100330.44;5051250;28;20032;-72
2023/09/23 02:07:30;;;;;;;11.85;7.53;;;;;;;21.07;81.20;100406.25;5051016;28;20021;-71
2023/09/23 02:09:55;;;;;;;18.33;7.85;;;;;;;21.18;80.58;100404.41;5051064;28;20029;-70
2023/09/23 02:12:21;;;;;;;18.85;6.82;;;;;;;21.27;80.18;100406.97;5032623;28;20032;-71
2023/09/23 02:14:46;;;;;;;14.35;7.30;;;;;;;21.33;80.51;100395.53;5050623;28;20090;-70
2023/09/23 02:17:12;;;;;;;12.23;7.55;;;;;;;21.26;79.46;100375.47;5031760;28;20440;-71
2023/09/23 02:19:38;;;;;;;16.55;7.40;;;;;;;20.94;79.47;100314.50;5015240;28;20041;-69
2023/09/23 02:22:07;;;;;;;13.55;6.68;;;;;;;21.39;80.01;100387.59;5050485;28;20025;-73
2023/09/23 02:24:36;;;;;;;14.35;6.82;;;;;;;21.07;79.94;100317.91;5050352;28;20125;-71
2023/09/23 02:27:02;;;;;;;14.07;7.15;;;;;;;21.53;79.86;100392.72;5050451;28;20086;-70
2023/09/23 02:29:28;;;;;;;10.02;7.18;;;;;;;21.53;78.14;100402.38;5050448;28;20025;-76
2023/09/23 02:31:54;;;;;;;11.52;7.28;;;;;;;21.49;77.72;100399.75;5049231;28;20020;-71
2023/09/23 02:34:20;;;;;;;13.90;8.02;;;;;;;21.37;80.17;100399.91;5050167;28;20021;-70
2023/09/23 02:36:45;;;;;;;20.45;10.55;;;;;;;21.42;82.51;100411.22;5050141;28;20538;-73
2023/09/23 02:39:21;;;;;;;13.02;7.30;;;;;;;21.34;82.09;100421.78;5050338;28;20025;-71
2023/09/23 02:41:47;;;;;;;15.77;8.60;;;;;;;20.96;81.51;100348.59;5049986;28;20071;-70
2023/09/23 02:44:18;;;;;;;19.73;9.18;;;;;;;21.34;81.57;100410.41;5050222;28;20039;-70
2023/09/23 02:46:46;;;;;;;15.30;9.25;;;;;;;21.33;81.48;100422.69;5049996;28;20086;-70
2023/09/23 02:49:16;;;;;;;15.15;9.27;;;;;;;21.30;81.84;100419.22;5050053;28;20080;-77
2023/09/23 02:51:42;;;;;;;16.92;9.48;;;;;;;21.24;81.46;100401.75;5045403;28;20408;-72
2023/09/23 02:54:09;;;;;;;18.63;9.77;;;;;;;21.24;81.42;100421.88;5049906;28;20041;-70
2023/09/23 02:56:35;;;;;;;15.35;10.45;;;;;;;21.21;80.71;100419.28;5050121;28;20472;-70
2023/09/23 02:59:21;;;;;;;15.07;9.82;;;;;;;20.85;80.53;100352.16;5050060;28;20060;-70
2023/09/23 03:01:51;;;;;;;14.88;9.57;;;;;;;21.30;80.48;100421.84;5049877;28;20021;-71
2023/09/23 03:04:19;;;;;;;18.13;9.48;;;;;;;21.30;79.89;100421.84;5049485;28;20051;-71
2023/09/23 03:06:49;;;;;;;16.50;9.25;;;;;;;21.12;75.82;100396.59;5049411;28;20561;-73
2023/09/23 03:09:26;;;;;;;15.68;8.65;;;;;;;21.17;75.76;100421.94;5050083;28;20061;-69
2023/09/23 03:11:55;;;;;;;13.98;9.13;;;;;;;20.72;77.25;100347.03;5034129;28;20037;-71
2023/09/23 03:14:35;;;;;;;16.30;8.73;;;;;;;21.11;79.18;100424.59;5029851;28;20473;-74
2023/09/23 03:17:03;;;;;;;14.02;8.25;;;;;;;20.95;80.01;100415.97;5037526;28;20033;-72
2023/09/23 03:19:28;;;;;;;15.48;8.30;;;;;;;21.03;80.01;100436.91;5049956;28;20112;-72
2023/09/23 03:21:56;;;;;;;14.13;7.50;;;;;;;21.10;79.51;100433.34;5049829;28;20104;-70
2023/09/23 03:24:26;;;;;;;20.67;8.93;;;;;;;21.18;78.20;100438.53;5049630;28;20036;-71
2023/09/23 03:26:58;;;;;;;15.57;8.45;;;;;;;21.11;76.27;100431.59;5049585;28;20116;-71
2023/09/23 03:29:28;;;;;;;12.90;7.25;;;;;;;20.96;75.98;100432.56;5049512;28;20021;-71
2023/09/23 03:31:57;;;;;;;15.40;7.40;;;;;;;20.78;75.93;100417.81;5049795;28;20039;-71
2023/09/23 03:34:23;;;;;;;14.88;7.95;;;;;;;20.90;76.33;100443.09;5049589;28;20029;-71
2023/09/23 03:36:51;;;;;;;14.13;7.70;;;;;;;20.75;75.96;100417.81;5045584;28;20488;-71
2023/09/23 03:39:17;;;;;;;15.40;8.10;;;;;;;20.78;76.24;100441.44;5029442;28;20405;-71
2023/09/23 03:41:49;;;;;;;18.90;7.97;;;;;;;20.79;75.62;100441.41;5029987;28;20033;-71
2023/09/23 03:44:15;;;;;;;16.15;8.20;;;;;;;20.66;75.65;100430.09;5033409;28;20022;-73
2023/09/23 03:46:47;;;;;;;18.02;8.02;;;;;;;20.69;75.88;100443.19;5033143;28;20502;-74
2023/09/23 03:49:13;;;;;;;13.50;7.55;;;;;;;20.57;75.54;100417.00;5033051;28;20527;-70
2023/09/23 03:51:38;;;;;;;14.02;8.13;;;;;;;20.64;76.18;100441.47;5033156;28;20112;-70
2023/09/23 03:54:05;;;;;;;13.93;7.93;;;;;;;20.39;75.86;100418.00;5033266;28;20504;-73
2023/09/23 03:56:33;;;;;;;18.75;8.98;;;;;;;20.55;76.18;100436.25;5032908;28;20108;-71
2023/09/23 03:59:00;;;;;;;14.88;7.93;;;;;;;20.46;76.25;100431.94;5032089;28;20076;-70
2023/09/23 04:01:26;;;;;;;22.85;8.93;;;;;;;20.49;76.68;100447.66;5033295;28;20025;-71
2023/09/23 04:03:51;;;;;;;36.90;10.32;;;;;;;20.54;78.00;100451.13;5051519;28;20043;-73
2023/09/23 04:06:18;;;;;;;18.15;8.45;;;;;;;20.30;77.39;100412.78;5053126;28;20036;-71
2023/09/23 04:08:44;;;;;;;31.65;10.00;;;;;;;20.51;77.98;100446.78;5052500;28;20029;-71
2023/09/23 04:11:10;;;;;;;21.00;9.23;;;;;;;20.50;78.18;100449.41;5052546;28;20029;-70
2023/09/23 04:13:38;;;;;;;76.20;11.57;;;;;;;20.39;78.87;100453.81;5052837;28;20083;-71
2023/09/23 04:16:05;;;;;;;283.70;28.08;;;;;;;20.15;80.60;100442.53;5046671;28;20048;-73
2023/09/23 04:18:31;;;;;;;27.73;10.63;;;;;;;19.89;80.47;100398.94;5038229;28;20048;-70
2023/09/23 04:20:57;;;;;;;31.25;9.90;;;;;;;20.24;80.78;100458.25;5044750;28;20095;-72
2023/09/23 04:23:23;;;;;;;23.10;9.73;;;;;;;20.02;81.42;100457.41;5042299;28;20105;-71
2023/09/23 04:25:52;;;;;;;25.80;9.85;;;;;;;19.83;82.69;100465.31;5040921;28;20125;-74
2023/09/23 04:28:18;;;;;;;137.35;15.43;;;;;;;19.71;83.19;100441.72;5043460;28;20029;-71
2023/09/23 04:30:44;;;;;;;40.00;10.07;;;;;;;19.79;83.00;100460.03;5042191;28;20496;-71
2023/09/23 04:33:12;;;;;;;81.07;13.05;;;;;;;19.77;84.03;100465.28;5042971;28;20033;-70
2023/09/23 04:35:37;;;;;;;47.55;11.13;;;;;;;19.75;83.71;100479.25;5043202;28;20020;-72
2023/09/23 04:38:03;;;;;;;24.80;9.15;;;;;;;19.74;83.34;100467.94;5041666;28;20449;-72
2023/09/23 04:40:29;;;;;;;17.52;8.98;;;;;;;19.82;83.69;100481.88;5040848;28;20079;-71
2023/09/23 04:42:54;;;;;;;31.90;9.95;;;;;;;19.49;84.88;100486.25;5043059;28;20104;-71
2023/09/23 04:45:21;;;;;;;21.98;9.50;;;;;;;19.17;86.55;100474.00;5040710;28;20104;-72
2023/09/23 04:47:50;;;;;;;23.20;9.55;;;;;;;19.06;87.75;100489.66;5031615;28;20626;-72
2023/09/23 04:50:23;;;;;;;78.73;14.90;;;;;;;19.07;88.00;100508.88;5041617;28;20049;-73
2023/09/23 04:52:50;;;;;;;16.90;8.73;;;;;;;19.26;87.26;100498.44;5040642;28;20033;-72
2023/09/23 04:55:17;;;;;;;14.82;8.35;;;;;;;19.49;85.89;100507.19;5041342;28;20132;-73
2023/09/23 04:57:43;;;;;;;12.27;8.43;;;;;;;19.71;85.16;100512.44;5041970;28;20467;-72
2023/09/23 05:00:19;;;;;;;18.85;9.02;;;;;;;19.73;83.88;100481.88;5040876;28;20029;-72
2023/09/23 05:02:47;;;;;;;15.65;8.60;;;;;;;19.90;82.41;100491.50;5040905;28;20033;-72
2023/09/23 05:05:13;;;;;;;15.85;7.82;;;;;;;19.60;83.22;100422.53;5042316;28;20021;-73
2023/09/23 05:07:39;;;;;;;18.00;9.30;;;;;;;19.66;83.27;100440.84;5041438;28;20041;-73
2023/09/23 05:10:05;;;;;;;12.75;7.93;;;;;;;20.05;83.40;100491.50;5040689;28;20692;-74
2023/09/23 05:12:32;;;;;;;20.23;9.63;;;;;;;20.11;83.15;100488.88;5042225;28;20033;-71
2023/09/23 05:14:58;;;;;;;14.48;8.82;;;;;;;20.20;82.88;100501.09;5042023;28;20017;-71
2023/09/23 05:17:26;;;;;;;17.40;9.40;;;;;;;20.20;82.76;100501.94;5039990;28;20028;-72
2023/09/23 05:19:52;;;;;;;17.33;8.98;;;;;;;20.28;82.37;100506.31;5041284;28;20104;-71
2023/09/23 05:22:18;;;;;;;13.68;8.25;;;;;;;20.25;82.21;100498.44;5042139;28;20083;-74
2023/09/23 05:24:48;;;;;;;15.77;8.55;;;;;;;20.18;81.94;100479.22;5040151;28;20025;-72
2023/09/23 05:27:16;;;;;;;13.80;8.32;;;;;;;20.06;82.27;100453.91;5041054;28;20025;-72
2023/09/23 05:29:50;;;;;;;17.15;8.68;;;;;;;20.39;82.57;100509.75;5041067;28;20033;-70
2023/09/23 05:32:17;;;;;;;15.45;8.88;;;;;;;20.33;82.30;100499.28;5040318;28;20508;-74
2023/09/23 05:35:09;;;;;;;16.75;8.52;;;;;;;20.47;82.30;100528.97;5008051;28;20073;-70
2023/09/23 05:37:39;;;;;;;14.70;8.80;;;;;;;20.60;82.51;100529.81;5008331;28;20406;-71
2023/09/23 05:40:18;;;;;;;20.85;9.88;;;;;;;20.53;82.39;100518.44;5000727;28;20034;-73
2023/09/23 05:42:44;;;;;;;13.52;9.02;;;;;;;20.69;82.82;100534.16;5005864;28;20141;-71
2023/09/23 05:45:11;;;;;;;18.42;9.25;;;;;;;20.76;82.49;100530.66;5008431;28;20120;-73
2023/09/23 05:47:36;;;;;;;11.80;9.13;;;;;;;20.83;82.10;100528.88;5008145;28;20116;-71
2023/09/23 05:50:03;;;;;;;36.00;11.13;;;;;;;20.63;82.71;100489.56;5007899;28;20552;-71
2023/09/23 05:52:30;;;;;;;17.50;8.70;;;;;;;20.96;81.63;100537.53;5008473;28;20068;-72
2023/09/23 05:54:56;;;;;;;41.13;10.90;;;;;;;21.01;81.77;100520.03;5007790;28;20034;-74
2023/09/23 05:57:22;;;;;;;21.67;8.15;;;;;;;21.01;81.89;100538.41;5009642;28;20030;-72
2023/09/23 05:59:47;;;;;;;19.02;8.55;;;;;;;20.48;82.17;100477.38;5003478;28;20041;-72
2023/09/23 06:02:12;;;;;;;40.67;9.80;;;;;;;20.69;82.80;100555.13;5007949;28;20410;-72
2023/09/23 06:04:38;;;;;;;23.90;9.05;;;;;;;20.57;82.66;100528.94;5007540;28;20481;-72
2023/09/23 06:07:04;;;;;;;17.25;8.40;;;;;;;20.84;81.07;100539.34;5036712;28;21544;-73
2023/09/23 06:09:30;;;;;;;25.48;8.45;;;;;;;20.97;79.07;100527.06;5036610;28;20106;-72
2023/09/23 06:11:55;;;;;;;19.80;8.25;;;;;;;21.22;79.76;100562.78;5046342;28;20453;-70
2023/09/23 06:14:21;;;;;;;15.15;8.18;;;;;;;21.24;79.07;100554.03;5041775;28;20029;-71
2023/09/23 06:16:48;;;;;;;30.90;9.23;;;;;;;21.12;79.77;100551.47;5040966;28;20021;-72
2023/09/23 06:19:14;;;;;;;19.30;8.10;;;;;;;21.19;78.96;100547.06;5041100;28;20057;-70
2023/09/23 06:21:39;;;;;;;14.82;7.85;;;;;;;21.53;77.46;100552.09;5034410;28;20118;-74
2023/09/23 06:24:05;;;;;;;15.35;6.90;;;;;;;21.65;75.39;100546.78;5041476;28;20120;-71
2023/09/23 06:26:30;;;;;;;12.93;7.60;;;;;;;21.81;73.96;100558.91;5044416;28;20027;-73
2023/09/23 06:28:56;;;;;;;16.50;7.30;;;;;;;21.82;74.24;100541.41;5049768;28;20037;-75
2023/09/23 06:31:21;;;;;;;14.32;6.95;;;;;;;22.01;72.42;100552.63;5050065;28;20029;-73
2023/09/23 06:33:47;;;;;;;10.63;6.90;;;;;;;22.12;71.96;100555.16;5049768;28;20032;-72
2023/09/23 06:36:12;;;;;;;12.55;7.10;;;;;;;22.31;71.14;100547.97;5049530;28;20064;-72
2023/09/23 06:38:38;;;;;;;14.35;7.65;;;;;;;22.41;71.24;100554.88;5049754;28;20389;-75
2023/09/23 06:41:03;;;;;;;14.13;6.82;;;;;;;22.46;70.45;100541.69;5030856;28;20093;-74
2023/09/23 06:43:29;;;;;;;13.48;6.82;;;;;;;22.49;70.52;100535.53;5050029;28;20500;-70
2023/09/23 06:45:55;;;;;;;14.73;7.35;;;;;;;22.65;70.58;100550.25;5050246;28;20453;-69
2023/09/23 06:48:22;;;;;;;13.88;7.47;;;;;;;22.66;69.77;100512.50;5048775;28;20033;-73
2023/09/23 06:51:01;;;;;;;16.85;6.95;;;;;;;22.67;69.28;100497.59;5050173;28;20029;-72
2023/09/23 06:53:28;;;;;;;17.27;6.57;;;;;;;23.19;69.78;100561.88;5050587;28;20017;-73
2023/09/23 06:55:54;;;;;;;12.43;7.00;;;;;;;23.22;69.71;100551.31;5044745;28;20036;-73
2023/09/23 06:58:19;;;;;;;11.82;6.53;;;;;;;23.37;69.09;100558.97;5049679;28;20166;-73
2023/09/23 07:00:45;;;;;;;14.45;7.47;;;;;;;23.31;69.36;100527.47;5049765;28;20029;-72
2023/09/23 07:03:11;;;;;;;18.70;7.72;;;;;;;23.63;69.94;100567.38;5031557;28;20477;-70
2023/09/23 07:05:37;;;;;;;10.90;6.45;;;;;;;23.60;69.24;100552.47;5049744;28;20029;-73
2023/09/23 07:08:03;;;;;;;12.35;6.45;;;;;;;23.14;68.31;100445.16;5048981;28;20025;-73
2023/09/23 07:10:32;;;;;;;14.80;6.90;;;;;;;23.74;68.39;100547.88;5049081;28;20110;-74
2023/09/23 07:12:59;;;;;;;38.47;8.50;;;;;;;23.95;69.25;100569.56;5049121;28;20036;-76
2023/09/23 07:15:24;;;;;;;12.18;6.82;;;;;;;24.08;68.15;100574.63;5048178;28;20107;-73
2023/09/23 07:17:50;;;;;;;17.58;7.07;;;;;;;24.15;67.22;100565.66;5032302;28;20029;-72
2023/09/23 07:20:16;;;;;;;15.93;6.78;;;;;;;24.28;66.56;100563.72;5052467;28;20021;-74
2023/09/23 07:22:41;;;;;;;18.88;7.43;;;;;;;24.43;66.73;100567.81;5052562;28;20079;-71
2023/09/23 07:25:07;;;;;;;12.82;5.80;;;;;;;24.38;65.03;100542.38;5052341;28;20136;-73
2023/09/23 07:27:32;;;;;;;13.95;6.13;;;;;;;24.65;65.22;100573.56;5053664;28;20032;-71
2023/09/23 07:29:58;;;;;;;10.85;5.90;;;;;;;24.74;63.84;100554.06;5033825;28;20207;-72
2023/09/23 07:32:23;;;;;;;11.05;6.15;;;;;;;24.87;63.74;100563.44;5053496;28;20127;-73
2023/09/23 07:34:49;;;;;;;16.67;6.65;;;;;;;25.02;63.84;100573.69;5052737;28;20033;-70
2023/09/23 07:37:14;;;;;;;14.52;6.50;;;;;;;25.10;63.65;100556.81;5053304;28;20753;-71
2023/09/23 07:39:40;;;;;;;14.88;6.45;;;;;;;25.12;62.63;100540.03;5052840;28;20024;-71
2023/09/23 07:42:06;;;;;;;12.30;6.45;;;;;;;25.01;62.73;100500.63;5053003;28;20606;-70
2023/09/23 07:44:31;;;;;;;15.18;6.47;;;;;;;25.19;66.19;100552.19;5031688;28;20026;-70
2023/09/23 07:46:57;;;;;;;14.23;6.05;;;;;;;25.02;63.29;100499.75;5043407;28;20075;-71
2023/09/23 07:49:23;;;;;;;11.90;5.85;;;;;;;25.13;63.28;100504.75;5052740;28;20056;-70
2023/09/23 07:51:49;;;;;;;14.07;6.22;;;;;;;25.42;63.32;100557.88;5052916;28;20164;-71
2023/09/23 07:54:14;;;;;;;13.18;6.38;;;;;;;25.34;63.17;100542.16;5052876;28;20025;-70
2023/09/23 07:56:40;;;;;;;13.32;5.82;;;;;;;25.50;64.11;100558.56;5053326;28;20455;-72
2023/09/23 07:59:06;;;;;;;9.48;5.65;;;;;;;25.35;62.26;100499.84;5049396;28;20434;-71
2023/09/23 08:01:31;;;;;;;16.67;6.30;;;;;;;25.84;62.94;100542.75;5049878;28;20025;-73
2023/09/23 08:03:57;;;;;;;14.45;6.25;;;;;;;26.04;61.40;100540.50;5050279;28;20083;-72
2023/09/23 08:06:22;;;;;;;11.40;5.75;;;;;;;26.16;59.82;100541.06;5052695;28;20025;-72
2023/09/23 08:08:48;;;;;;;8.80;5.32;;;;;;;26.22;58.83;100537.41;5052237;28;20423;-70
2023/09/23 08:11:14;;;;;;;17.85;6.40;;;;;;;26.16;59.50;100513.75;5052470;28;20029;-68
2023/09/23 08:13:39;;;;;;;10.30;5.25;;;;;;;25.50;59.82;100395.56;5051893;28;20033;-71
2023/09/23 08:16:05;;;;;;;12.77;5.88;;;;;;;26.14;59.62;100491.75;5052496;28;20464;-69
2023/09/23 08:18:30;;;;;;;14.27;5.97;;;;;;;26.57;58.80;100534.69;5051530;28;20025;-71
2023/09/23 08:20:59;;;;;;;10.70;5.93;;;;;;;26.53;58.04;100515.38;5052456;28;20499;-72
2023/09/23 08:23:25;;;;;;;12.73;6.03;;;;;;;26.40;57.87;100461.03;5052194;28;20037;-70
2023/09/23 08:25:52;;;;;;;18.35;5.88;;;;;;;26.97;57.65;100525.59;5052607;28;20033;-70
2023/09/23 08:28:18;;;;;;;17.83;6.05;;;;;;;27.10;57.92;100532.25;5044961;28;20059;-70
2023/09/23 08:30:44;;;;;;;13.95;6.10;;;;;;;26.61;58.87;100449.81;5051701;28;20488;-71
2023/09/23 08:33:12;;;;;;;11.13;5.97;;;;;;;27.16;57.78;100525.03;5049191;28;20032;-71
2023/09/23 08:35:40;;;;;;;10.03;5.80;;;;;;;27.23;61.17;100522.13;5052096;28;20036;-72
2023/09/23 08:38:05;;;;;;;14.18;5.47;;;;;;;27.20;57.73;100508.09;5051912;28;20268;-71
2023/09/23 08:40:34;;;;;;;14.15;6.03;;;;;;;27.38;56.86;100526.06;5052345;28;20094;-71
2023/09/23 08:43:04;;;;;;;10.00;5.10;;;;;;;27.47;56.60;100506.38;5051694;28;20072;-71
2023/09/23 08:45:30;;;;;;;15.45;5.93;;;;;;;27.73;55.84;100512.59;5052135;28;20110;-70
2023/09/23 08:47:57;;;;;;;14.35;5.43;;;;;;;27.80;55.41;100511.44;5051577;28;20021;-72
2023/09/23 08:50:24;;;;;;;11.55;5.47;;;;;;;27.99;53.91;100505.50;5015841;28;20040;-71
2023/09/23 08:52:49;;;;;;;12.45;5.55;;;;;;;28.04;53.99;100495.66;5051721;28;20644;-71
2023/09/23 08:55:17;;;;;;;14.63;5.80;;;;;;;28.05;54.41;100476.13;5033861;28;20036;-70
2023/09/23 08:57:42;;;;;;;12.75;5.68;;;;;;;28.20;54.53;100480.91;5051664;28;20048;-71
2023/09/23 09:00:10;;;;;;;14.52;5.80;;;;;;;27.91;53.91;100448.31;5051422;28;20071;-70
2023/09/23 09:02:35;;;;;;;11.43;5.55;;;;;;;28.37;53.39;100498.84;5051379;28;20029;-72
2023/09/23 09:05:01;;;;;;;14.70;6.00;;;;;;;28.28;56.01;100455.88;5050750;28;20048;-70
2023/09/23 09:07:37;;;;;;;11.50;5.80;;;;;;;28.58;53.95;100489.22;5033749;28;20510;-73
2023/09/23 09:10:05;;;;;;;8.90;5.72;;;;;;;28.68;55.06;100483.59;5051394;28;20033;-72
2023/09/23 09:12:34;;;;;;;10.65;5.13;;;;;;;28.83;53.71;100492.78;5050626;28;20025;-68
2023/09/23 09:15:00;;;;;;;27.77;6.65;;;;;;;28.77;52.73;100487.69;5051673;28;20036;-70
2023/09/23 09:17:25;;;;;;;17.45;5.65;;;;;;;28.86;52.05;100489.97;5050892;28;20029;-72
2023/09/23 09:19:51;;;;;;;22.08;5.88;;;;;;;29.00;52.89;100478.84;5051500;28;20028;-72
2023/09/23 09:22:19;;;;;;;10.73;5.45;;;;;;;29.13;55.17;100482.69;5029811;28;20053;-72
2023/09/23 09:24:46;;;;;;;13.25;5.93;;;;;;;29.32;54.80;100474.91;5047633;28;20029;-72
2023/09/23 09:27:14;;;;;;;12.18;5.20;;;;;;;29.44;51.67;100475.31;5007170;28;20037;-71
2023/09/23 09:29:43;;;;;;;13.50;5.40;;;;;;;29.58;54.75;100472.06;4999964;28;20496;-72
2023/09/23 09:32:10;;;;;;;12.25;5.82;;;;;;;29.66;52.37;100461.97;5050728;28;20022;-73
2023/09/23 09:34:45;;;;;;;12.00;5.80;;;;;;;29.80;53.04;100464.03;5051057;28;20024;-72
2023/09/23 09:37:15;;;;;;;8.38;5.72;;;;;;;29.92;51.27;100457.31;5051254;28;20044;-71
2023/09/23 09:39:51;;;;;;;11.90;5.88;;;;;;;29.81;51.13;100426.69;5050257;28;20029;-71
2023/09/23 09:42:26;;;;;;;14.25;5.78;;;;;;;29.94;48.98;100436.84;5046109;28;20030;-71
2023/09/23 09:44:54;;;;;;;10.15;5.10;;;;;;;30.17;50.74;100451.78;5049964;28;20500;-71
2023/09/23 09:47:21;;;;;;;10.82;5.68;;;;;;;30.36;49.47;100454.47;5050796;28;20079;-72
2023/09/23 09:49:57;;;;;;;10.38;5.70;;;;;;;30.50;49.02;100461.84;5050659;28;20068;-73
2023/09/23 09:52:26;;;;;;;12.75;5.63;;;;;;;30.58;48.35;100458.81;5050616;28;20086;-72
2023/09/23 09:54:55;;;;;;;13.20;5.97;;;;;;;30.34;48.58;100435.00;5050411;28;20472;-73
2023/09/23 09:57:23;;;;;;;19.65;6.22;;;;;;;30.37;48.18;100416.25;5050316;28;20120;-70
2023/09/23 09:59:52;;;;;;;13.30;5.95;;;;;;;30.72;48.05;100440.38;5050752;28;20039;-68
2023/09/23 10:02:18;;;;;;;11.05;5.13;;;;;;;30.88;47.26;100445.84;5050193;28;20037;-67
2023/09/23 10:04:51;;;;;;;15.32;5.63;;;;;;;30.66;50.41;100387.38;5050499;28;20116;-68
2023/09/23 10:07:16;;;;;;;13.82;5.50;;;;;;;31.08;50.94;100436.00;5046621;28;20511;-71
2023/09/23 10:09:55;;;;;;;18.27;5.93;;;;;;;31.14;48.85;100420.59;5050131;28;20021;-69
2023/09/23 10:12:31;;;;;;;12.52;5.28;;;;;;;31.26;49.76;100418.25;5032017;28;20027;-69
2023/09/23 10:14:58;;;;;;;12.65;5.70;;;;;;;31.20;48.23;100387.41;5050470;28;20040;-73
2023/09/23 10:17:31;;;;;;;15.48;5.38;;;;;;;31.55;49.23;100414.06;5049759;28;20021;-74
2023/09/23 10:19:57;;;;;;;13.65;5.10;;;;;;;31.56;47.17;100382.94;5049303;28;20467;-68
2023/09/23 10:22:23;;;;;;;12.00;5.20;;;;;;;31.85;46.80;100400.09;5014397;28;20106;-70
2023/09/23 10:25:04;;;;;;;23.30;5.60;;;;;;;31.84;44.78;100386.81;5049617;28;20029;-69
2023/09/23 10:27:30;;;;;;;12.98;5.18;;;;;;;32.01;44.10;100410.81;5050179;28;20365;-71
2023/09/23 10:29:55;;;;;;;13.48;5.60;;;;;;;32.09;44.54;100403.25;5049828;28;20033;-68
2023/09/23 10:32:21;;;;;;;20.35;5.55;;;;;;;32.30;44.09;100399.50;5031672;28;20028;-69
2023/09/23 10:34:52;;;;;;;16.88;5.18;;;;;;;32.47;42.87;100399.44;5049274;28;20029;-68
2023/09/23 10:37:44;;;;;;;13.57;5.18;;;;;;;32.62;42.02;100392.34;5032122;28;20033;-67
2023/09/23 10:40:13;;;;;;;11.65;5.28;;;;;;;32.64;41.76;100390.47;4987227;28;20078;-70
2023/09/23 10:42:43;;;;;;;10.07;4.88;;;;;;;32.75;43.90;100389.91;4987627;28;20041;-68
2023/09/23 10:45:09;;;;;;;13.82;5.20;;;;;;;32.86;41.38;100381.22;4987294;28;20056;-71
2023/09/23 10:47:36;;;;;;;8.77;5.45;;;;;;;32.94;41.12;100381.66;4984268;28;20078;-71
2023/09/23 10:50:06;;;;;;;16.67;5.57;;;;;;;32.85;41.49;100348.31;4987254;28;20066;-68
2023/09/23 10:52:32;;;;;;;15.70;5.68;;;;;;;33.17;40.53;100374.97;4986934;28;20057;-71
2023/09/23 10:54:57;;;;;;;9.50;4.65;;;;;;;32.96;40.30;100334.31;4986983;28;20038;-72
2023/09/23 10:57:23;;;;;;;12.00;4.75;;;;;;;33.13;41.90;100346.66;4986968;28;20101;-69
2023/09/23 10:59:51;;;;;;;14.02;5.95;;;;;;;33.33;41.91;100355.34;4970658;28;20038;-69
2023/09/23 11:02:18;;;;;;;10.90;4.63;;;;;;;33.24;39.48;100327.28;4963875;28;20026;-69
2023/09/23 11:04:50;;;;;;;18.33;5.00;;;;;;;33.46;39.23;100348.28;4987743;28;20561;-69
2023/09/23 11:07:16;;;;;;;17.08;5.20;;;;;;;33.36;41.72;100302.50;4971538;28;20414;-69
2023/09/23 11:09:47;;;;;;;13.85;5.05;;;;;;;33.61;38.16;100330.44;4987690;28;20038;-68
2023/09/23 11:12:15;;;;;;;14.40;5.07;;;;;;;33.52;38.28;100293.50;4971926;28;20427;-70
2023/09/23 11:14:48;;;;;;;14.50;4.97;;;;;;;33.84;39.97;100336.19;4987646;28;20036;-71
2023/09/23 11:17:30;;;;;;;15.57;4.82;;;;;;;33.86;38.72;100335.13;5025705;28;20048;-71
2023/09/23 11:19:57;;;;;;;10.70;4.63;;;;;;;33.97;37.79;100329.09;5045284;28;20029;-71